sensor_id;sensor_type;location;lat;lon;timestamp;pressure;altitude;pressure_sealevel;temperature;humidity
64340;BME280;63709;53.258;-8.814;2023-02-12T00:00:01;103499.81;;;13.06;100.00
64340;BME280;63709;53.258;-8.814;2023-02-12T00:02:28;103498.94;;;13.06;100.00
64340;BME280;63709;53.258;-8.814;2023-02-12T00:04:54;103495.44;;;13.04;100.00
64340;BME280;63709;53.258;-8.814;2023-02-12T00:07:19;103494.63;;;13.02;100.00
64340;BME280;63709;53.258;-8.814;2023-02-12T00:09:45;103499.06;;;13.03;100.00
64340;BME280;63709;53.258;-8.814;2023-02-12T00:12:10;103501.75;;;13.03;100.00
64340;BME280;63709;53.258;-8.814;2023-02-12T00:14:36;103496.25;;;13.06;100.00
64340;BME280;63709;53.258;-8.814;2023-02-12T00:17:02;103496.44;;;13.01;100.00
64340;BME280;63709;53.258;-8.814;2023-02-12T00:19:28;103501.94;;;12.98;100.00
64340;BME280;63709;53.258;-8.814;2023-02-12T00:21:54;103504.63;;;12.98;100.00
64340;BME280;63709;53.258;-8.814;2023-02-12T00:24:19;103501.06;;;12.98;100.00
64340;BME280;63709;53.258;-8.814;2023-02-12T00:26:44;103495.50;;;13.02;100.00
64340;BME280;63709;53.258;-8.814;2023-02-12T00:29:12;103498.31;;;12.99;100.00
64340;BME280;63709;53.258;-8.814;2023-02-12T00:31:38;103496.56;;;12.98;100.00
64340;BME280;63709;53.258;-8.814;2023-02-12T00:34:04;103495.31;;;13.07;100.00
64340;BME280;63709;53.258;-8.814;2023-02-12T00:36:30;103496.25;;;13.06;100.00
64340;BME280;63709;53.258;-8.814;2023-02-12T00:38:56;103488.47;;;13.00;100.00
64340;BME280;63709;53.258;-8.814;2023-02-12T00:41:22;103494.69;;;13.00;100.00
64340;BME280;63709;53.258;-8.814;2023-02-12T00:43:49;103482.16;;;13.01;100.00
64340;BME280;63709;53.258;-8.814;2023-02-12T00:46:14;103475.78;;;13.03;100.00
64340;BME280;63709;53.258;-8.814;2023-02-12T00:48:40;103481.97;;;13.05;100.00
64340;BME280;63709;53.258;-8.814;2023-02-12T00:51:06;103479.22;;;13.07;100.00
64340;BME280;63709;53.258;-8.814;2023-02-12T00:53:32;103473.66;;;13.12;100.00
64340;BME280;63709;53.258;-8.814;2023-02-12T00:55:58;103470.19;;;13.10;100.00
64340;BME280;63709;53.258;-8.814;2023-02-12T00:58:24;103475.72;;;13.05;100.00
64340;BME280;63709;53.258;-8.814;2023-02-12T01:00:50;103467.00;;;13.00;100.00
64340;BME280;63709;53.258;-8.814;2023-02-12T01:03:16;103468.63;;;13.04;100.00
64340;BME280;63709;53.258;-8.814;2023-02-12T01:05:43;103466.25;;;12.96;100.00
64340;BME280;63709;53.258;-8.814;2023-02-12T01:08:10;103459.56;;;13.06;100.00
64340;BME280;63709;53.258;-8.814;2023-02-12T01:10:36;103464.84;;;13.08;100.00
64340;BME280;63709;53.258;-8.814;2023-02-12T01:13:01;103462.38;;;13.03;100.00
64340;BME280;63709;53.258;-8.814;2023-02-12T01:15:28;103458.19;;;12.98;100.00
64340;BME280;63709;53.258;-8.814;2023-02-12T01:17:55;103463.47;;;12.99;100.00
64340;BME280;63709;53.258;-8.814;2023-02-12T01:20:21;103455.50;;;12.98;100.00
64340;BME280;63709;53.258;-8.814;2023-02-12T01:22:47;103446.72;;;12.94;100.00
64340;BME280;63709;53.258;-8.814;2023-02-12T01:25:13;103447.56;;;12.95;100.00
64340;BME280;63709;53.258;-8.814;2023-02-12T01:27:41;103442.09;;;12.98;100.00
64340;BME280;63709;53.258;-8.814;2023-02-12T01:30:16;103452.97;;;12.93;100.00
64340;BME280;63709;53.258;-8.814;2023-02-12T01:32:43;103445.88;;;12.92;100.00
64340;BME280;63709;53.258;-8.814;2023-02-12T01:35:10;103443.94;;;12.96;100.00
64340;BME280;63709;53.258;-8.814;2023-02-12T01:37:36;103441.47;;;12.91;100.00
64340;BME280;63709;53.258;-8.814;2023-02-12T01:40:03;103443.28;;;12.91;100.00
64340;BME280;63709;53.258;-8.814;2023-02-12T01:42:28;103438.25;;;12.83;100.00
64340;BME280;63709;53.258;-8.814;2023-02-12T01:47:39;103440.44;;;12.73;100.00
64340;BME280;63709;53.258;-8.814;2023-02-12T01:50:12;103435.88;;;12.75;100.00
64340;BME280;63709;53.258;-8.814;2023-02-12T01:52:40;103432.16;;;12.79;100.00
64340;BME280;63709;53.258;-8.814;2023-02-12T01:55:08;103442.88;;;12.79;100.00
64340;BME280;63709;53.258;-8.814;2023-02-12T01:57:36;103438.38;;;12.80;100.00
64340;BME280;63709;53.258;-8.814;2023-02-12T02:00:03;103434.81;;;12.79;100.00
64340;BME280;63709;53.258;-8.814;2023-02-12T02:02:30;103433.88;;;12.80;100.00
64340;BME280;63709;53.258;-8.814;2023-02-12T02:04:57;103438.28;;;12.81;100.00
64340;BME280;63709;53.258;-8.814;2023-02-12T02:07:23;103431.66;;;12.70;100.00
64340;BME280;63709;53.258;-8.814;2023-02-12T02:09:49;103436.88;;;12.73;100.00
64340;BME280;63709;53.258;-8.814;2023-02-12T02:12:15;103431.56;;;12.71;100.00
64340;BME280;63709;53.258;-8.814;2023-02-12T02:14:59;103433.59;;;12.66;100.00
64340;BME280;63709;53.258;-8.814;2023-02-12T02:17:34;103430.66;;;12.72;100.00
64340;BME280;63709;53.258;-8.814;2023-02-12T02:28:11;103421.25;;;12.82;100.00
64340;BME280;63709;53.258;-8.814;2023-02-12T02:43:48;103417.38;;;12.90;100.00
64340;BME280;63709;53.258;-8.814;2023-02-12T02:48:58;103420.06;;;12.90;100.00
64340;BME280;63709;53.258;-8.814;2023-02-12T02:51:29;103413.84;;;12.89;100.00
64340;BME280;63709;53.258;-8.814;2023-02-12T02:54:04;103415.91;;;12.82;100.00
64340;BME280;63709;53.258;-8.814;2023-02-12T02:56:32;103414.91;;;12.85;100.00
64340;BME280;63709;53.258;-8.814;2023-02-12T02:59:33;103406.78;;;12.87;100.00
64340;BME280;63709;53.258;-8.814;2023-02-12T03:01:56;103414.03;;;12.84;100.00
64340;BME280;63709;53.258;-8.814;2023-02-12T03:04:28;103397.84;;;12.88;100.00
64340;BME280;63709;53.258;-8.814;2023-02-12T03:09:46;103407.59;;;12.89;100.00
64340;BME280;63709;53.258;-8.814;2023-02-12T03:12:17;103402.66;;;12.79;100.00
64340;BME280;63709;53.258;-8.814;2023-02-12T03:14:48;103406.94;;;12.83;100.00
64340;BME280;63709;53.258;-8.814;2023-02-12T03:17:26;103408.03;;;12.79;100.00
64340;BME280;63709;53.258;-8.814;2023-02-12T03:19:59;103408.81;;;12.81;100.00
64340;BME280;63709;53.258;-8.814;2023-02-12T03:22:32;103405.88;;;12.88;100.00
64340;BME280;63709;53.258;-8.814;2023-02-12T03:25:20;103397.84;;;12.88;100.00
64340;BME280;63709;53.258;-8.814;2023-02-12T03:27:45;103392.59;;;12.84;100.00
64340;BME280;63709;53.258;-8.814;2023-02-12T03:30:13;103400.63;;;12.84;100.00
64340;BME280;63709;53.258;-8.814;2023-02-12T03:35:07;103400.72;;;12.83;100.00
64340;BME280;63709;53.258;-8.814;2023-02-12T03:37:35;103399.81;;;12.82;100.00
64340;BME280;63709;53.258;-8.814;2023-02-12T03:42:44;103394.53;;;12.81;100.00
64340;BME280;63709;53.258;-8.814;2023-02-12T03:47:48;103388.75;;;12.90;100.00
64340;BME280;63709;53.258;-8.814;2023-02-12T03:50:32;103389.72;;;12.89;100.00
64340;BME280;63709;53.258;-8.814;2023-02-12T03:52:59;103382.53;;;12.90;100.00
64340;BME280;63709;53.258;-8.814;2023-02-12T03:55:25;103390.44;;;12.93;100.00
64340;BME280;63709;53.258;-8.814;2023-02-12T03:57:54;103390.41;;;12.94;100.00
64340;BME280;63709;53.258;-8.814;2023-02-12T04:00:23;103389.31;;;12.98;100.00
64340;BME280;63709;53.258;-8.814;2023-02-12T04:02:50;103383.00;;;12.99;100.00
64340;BME280;63709;53.258;-8.814;2023-02-12T04:05:17;103396.50;;;12.98;100.00
64340;BME280;63709;53.258;-8.814;2023-02-12T04:07:43;103393.81;;;12.98;100.00
64340;BME280;63709;53.258;-8.814;2023-02-12T04:10:10;103397.38;;;12.98;100.00
64340;BME280;63709;53.258;-8.814;2023-02-12T04:15:32;103391.06;;;12.99;100.00
64340;BME280;63709;53.258;-8.814;2023-02-12T04:23:04;103387.56;;;12.97;100.00
64340;BME280;63709;53.258;-8.814;2023-02-12T04:25:56;103389.38;;;12.97;100.00
64340;BME280;63709;53.258;-8.814;2023-02-12T04:28:51;103380.53;;;12.95;100.00
64340;BME280;63709;53.258;-8.814;2023-02-12T04:31:23;103393.13;;;12.93;100.00
64340;BME280;63709;53.258;-8.814;2023-02-12T04:36:23;103384.44;;;12.88;100.00
64340;BME280;63709;53.258;-8.814;2023-02-12T04:38:50;103385.09;;;12.93;100.00
64340;BME280;63709;53.258;-8.814;2023-02-12T04:41:17;103379.72;;;12.93;100.00
64340;BME280;63709;53.258;-8.814;2023-02-12T04:43:43;103373.50;;;12.92;100.00
64340;BME280;63709;53.258;-8.814;2023-02-12T04:46:09;103373.41;;;12.94;100.00
64340;BME280;63709;53.258;-8.814;2023-02-12T04:48:36;103370.91;;;12.91;100.00
64340;BME280;63709;53.258;-8.814;2023-02-12T04:51:02;103375.31;;;12.92;100.00
64340;BME280;63709;53.258;-8.814;2023-02-12T04:53:28;103367.59;;;12.84;100.00
64340;BME280;63709;53.258;-8.814;2023-02-12T04:55:55;103368.56;;;12.83;100.00
64340;BME280;63709;53.258;-8.814;2023-02-12T04:58:21;103359.28;;;12.90;100.00
64340;BME280;63709;53.258;-8.814;2023-02-12T05:00:46;103367.66;;;12.82;100.00
64340;BME280;63709;53.258;-8.814;2023-02-12T05:03:11;103369.53;;;12.80;100.00
64340;BME280;63709;53.258;-8.814;2023-02-12T05:05:37;103366.00;;;12.80;100.00
64340;BME280;63709;53.258;-8.814;2023-02-12T05:08:02;103362.38;;;12.81;100.00
64340;BME280;63709;53.258;-8.814;2023-02-12T05:10:28;103367.13;;;12.74;100.00
64340;BME280;63709;53.258;-8.814;2023-02-12T05:12:54;103370.66;;;12.75;100.00
64340;BME280;63709;53.258;-8.814;2023-02-12T05:15:20;103373.31;;;12.76;100.00
64340;BME280;63709;53.258;-8.814;2023-02-12T05:17:45;103366.03;;;12.78;100.00
64340;BME280;63709;53.258;-8.814;2023-02-12T05:20:11;103365.13;;;12.79;100.00
64340;BME280;63709;53.258;-8.814;2023-02-12T05:22:37;103364.09;;;12.82;100.00
64340;BME280;63709;53.258;-8.814;2023-02-12T05:25:03;103363.97;;;12.85;100.00
64340;BME280;63709;53.258;-8.814;2023-02-12T05:27:28;103359.47;;;12.86;100.00
64340;BME280;63709;53.258;-8.814;2023-02-12T05:29:55;103366.03;;;12.78;100.00
64340;BME280;63709;53.258;-8.814;2023-02-12T05:32:21;103367.66;;;12.82;100.00
64340;BME280;63709;53.258;-8.814;2023-02-12T05:34:46;103365.78;;;12.84;100.00
64340;BME280;63709;53.258;-8.814;2023-02-12T05:37:13;103362.28;;;12.82;100.00
64340;BME280;63709;53.258;-8.814;2023-02-12T05:39:38;103363.13;;;12.84;100.00
64340;BME280;63709;53.258;-8.814;2023-02-12T05:42:04;103365.72;;;12.86;100.00
64340;BME280;63709;53.258;-8.814;2023-02-12T05:44:29;103362.16;;;12.86;100.00
64340;BME280;63709;53.258;-8.814;2023-02-12T05:46:55;103366.56;;;12.87;100.00
64340;BME280;63709;53.258;-8.814;2023-02-12T05:49:21;103363.91;;;12.87;100.00
64340;BME280;63709;53.258;-8.814;2023-02-12T05:51:47;103362.16;;;12.86;100.00
64340;BME280;63709;53.258;-8.814;2023-02-12T05:54:12;103366.03;;;12.78;100.00
64340;BME280;63709;53.258;-8.814;2023-02-12T05:56:42;103369.34;;;12.85;100.00
64340;BME280;63709;53.258;-8.814;2023-02-12T05:59:12;103360.56;;;12.81;100.00
64340;BME280;63709;53.258;-8.814;2023-02-12T06:01:44;103359.81;;;12.78;100.00
64340;BME280;63709;53.258;-8.814;2023-02-12T06:04:20;103353.59;;;12.77;100.00
64340;BME280;63709;53.258;-8.814;2023-02-12T06:09:19;103355.44;;;12.75;100.00
64340;BME280;63709;53.258;-8.814;2023-02-12T06:11:44;103358.94;;;12.77;100.00
64340;BME280;63709;53.258;-8.814;2023-02-12T06:14:11;103351.72;;;12.79;100.00
64340;BME280;63709;53.258;-8.814;2023-02-12T06:16:38;103348.16;;;12.79;100.00
64340;BME280;63709;53.258;-8.814;2023-02-12T06:19:04;103349.06;;;12.79;100.00
64340;BME280;63709;53.258;-8.814;2023-02-12T06:21:30;103347.25;;;12.80;100.00
64340;BME280;63709;53.258;-8.814;2023-02-12T06:23:56;103344.44;;;12.83;100.00
64340;BME280;63709;53.258;-8.814;2023-02-12T06:26:23;103341.53;;;12.88;100.00
64340;BME280;63709;53.258;-8.814;2023-02-12T06:28:50;103344.22;;;12.88;100.00
64340;BME280;63709;53.258;-8.814;2023-02-12T06:33:42;103349.56;;;12.88;100.00
64340;BME280;63709;53.258;-8.814;2023-02-12T06:36:08;103342.66;;;12.82;100.00
64340;BME280;63709;53.258;-8.814;2023-02-12T06:38:34;103341.25;;;12.73;100.00
64340;BME280;63709;53.258;-8.814;2023-02-12T06:41:00;103341.66;;;12.84;100.00
64340;BME280;63709;53.258;-8.814;2023-02-12T06:43:26;103338.16;;;12.82;100.00
64340;BME280;63709;53.258;-8.814;2023-02-12T06:45:51;103341.00;;;12.79;100.00
64340;BME280;63709;53.258;-8.814;2023-02-12T06:48:18;103341.78;;;12.81;100.00
64340;BME280;63709;53.258;-8.814;2023-02-12T06:50:46;103349.97;;;12.78;100.00
64340;BME280;63709;53.258;-8.814;2023-02-12T06:53:12;103349.09;;;12.78;100.00
64340;BME280;63709;53.258;-8.814;2023-02-12T06:55:39;103351.72;;;12.79;100.00
64340;BME280;63709;53.258;-8.814;2023-02-12T06:58:04;103345.34;;;12.82;100.00
64340;BME280;63709;53.258;-8.814;2023-02-12T07:00:31;103344.72;;;12.75;100.00
64340;BME280;63709;53.258;-8.814;2023-02-12T07:02:56;103342.06;;;12.75;100.00
64340;BME280;63709;53.258;-8.814;2023-02-12T07:05:22;103344.06;;;12.70;100.00
64340;BME280;63709;53.258;-8.814;2023-02-12T07:07:48;103346.13;;;12.64;100.00
64340;BME280;63709;53.258;-8.814;2023-02-12T07:10:13;103337.72;;;12.73;100.00
64340;BME280;63709;53.258;-8.814;2023-02-12T07:12:41;103334.50;;;12.65;100.00
64340;BME280;63709;53.258;-8.814;2023-02-12T07:15:06;103339.78;;;12.66;100.00
64340;BME280;63709;53.258;-8.814;2023-02-12T07:17:31;103343.28;;;12.68;100.00
64340;BME280;63709;53.258;-8.814;2023-02-12T07:19:57;103337.84;;;12.70;100.00
64340;BME280;63709;53.258;-8.814;2023-02-12T07:22:22;103331.81;;;12.65;100.00
64340;BME280;63709;53.258;-8.814;2023-02-12T07:24:48;103339.38;;;12.75;100.00
64340;BME280;63709;53.258;-8.814;2023-02-12T07:27:13;103334.97;;;12.74;100.00
64340;BME280;63709;53.258;-8.814;2023-02-12T07:29:39;103325.06;;;12.76;100.00
64340;BME280;63709;53.258;-8.814;2023-02-12T07:32:05;103322.44;;;12.75;100.00
64340;BME280;63709;53.258;-8.814;2023-02-12T07:34:31;103318.75;;;12.77;100.00
64340;BME280;63709;53.258;-8.814;2023-02-12T07:36:56;103325.66;;;12.83;100.00
64340;BME280;63709;53.258;-8.814;2023-02-12T07:39:23;103322.03;;;12.84;100.00
64340;BME280;63709;53.258;-8.814;2023-02-12T07:41:48;103333.63;;;12.84;100.00
64340;BME280;63709;53.258;-8.814;2023-02-12T07:44:14;103324.59;;;12.87;100.00
64340;BME280;63709;53.258;-8.814;2023-02-12T07:46:43;103335.31;;;12.87;100.00
64340;BME280;63709;53.258;-8.814;2023-02-12T07:49:11;103331.59;;;12.90;100.00
64340;BME280;63709;53.258;-8.814;2023-02-12T07:51:37;103339.84;;;12.85;100.00
64340;BME280;63709;53.258;-8.814;2023-02-12T07:54:04;103343.59;;;12.81;100.00
64340;BME280;63709;53.258;-8.814;2023-02-12T07:56:30;103346.94;;;12.86;100.00
64340;BME280;63709;53.258;-8.814;2023-02-12T07:58:57;103353.50;;;12.79;100.00
64340;BME280;63709;53.258;-8.814;2023-02-12T08:01:27;103357.22;;;12.76;100.00
64340;BME280;63709;53.258;-8.814;2023-02-12T08:03:59;103351.97;;;12.73;100.00
64340;BME280;63709;53.258;-8.814;2023-02-12T08:06:26;103348.56;;;12.70;100.00
64340;BME280;63709;53.258;-8.814;2023-02-12T08:08:52;103357.25;;;12.54;100.00
64340;BME280;63709;53.258;-8.814;2023-02-12T08:11:18;103364.97;;;12.62;100.00
64340;BME280;63709;53.258;-8.814;2023-02-12T08:13:44;103371.28;;;12.61;100.00
64340;BME280;63709;53.258;-8.814;2023-02-12T08:16:11;103364.38;;;12.55;100.00
64340;BME280;63709;53.258;-8.814;2023-02-12T08:18:36;103374.22;;;12.55;100.00
64340;BME280;63709;53.258;-8.814;2023-02-12T08:21:03;103371.03;;;12.45;100.00
64340;BME280;63709;53.258;-8.814;2023-02-12T08:23:29;103372.66;;;12.49;100.00
64340;BME280;63709;53.258;-8.814;2023-02-12T08:26:03;103371.84;;;12.47;100.00
64340;BME280;63709;53.258;-8.814;2023-02-12T08:28:29;103372.34;;;12.57;100.00
64340;BME280;63709;53.258;-8.814;2023-02-12T08:30:58;103367.69;;;12.60;100.00
64340;BME280;63709;53.258;-8.814;2023-02-12T08:33:24;103370.72;;;12.53;100.00
64340;BME280;63709;53.258;-8.814;2023-02-12T08:38:34;103378.91;;;12.50;100.00
64340;BME280;63709;53.258;-8.814;2023-02-12T08:41:03;103367.25;;;12.51;100.00
64340;BME280;63709;53.258;-8.814;2023-02-12T08:43:29;103360.00;;;12.53;100.00
64340;BME280;63709;53.258;-8.814;2023-02-12T08:45:59;103357.50;;;12.48;100.00
64340;BME280;63709;53.258;-8.814;2023-02-12T08:48:25;103350.34;;;12.49;100.00
64340;BME280;63709;53.258;-8.814;2023-02-12T08:50:50;103345.69;;;12.54;100.00
64340;BME280;63709;53.258;-8.814;2023-02-12T08:53:16;103351.91;;;12.54;100.00
64340;BME280;63709;53.258;-8.814;2023-02-12T08:55:51;103353.75;;;12.52;100.00
64340;BME280;63709;53.258;-8.814;2023-02-12T08:58:18;103354.50;;;12.56;100.00
64340;BME280;63709;53.258;-8.814;2023-02-12T09:00:44;103348.28;;;12.55;100.00
64340;BME280;63709;53.258;-8.814;2023-02-12T09:03:11;103346.81;;;12.48;100.00
64340;BME280;63709;53.258;-8.814;2023-02-12T09:05:40;103349.28;;;12.53;100.00
64340;BME280;63709;53.258;-8.814;2023-02-12T09:08:05;103348.16;;;12.58;100.00
64340;BME280;63709;53.258;-8.814;2023-02-12T09:10:32;103358.00;;;12.58;100.00
64340;BME280;63709;53.258;-8.814;2023-02-12T09:12:58;103358.78;;;12.60;100.00
64340;BME280;63709;53.258;-8.814;2023-02-12T09:15:23;103351.09;;;12.52;100.00
64340;BME280;63709;53.258;-8.814;2023-02-12T09:17:49;103348.03;;;12.62;100.00
64340;BME280;63709;53.258;-8.814;2023-02-12T09:20:15;103354.50;;;12.56;100.00
64340;BME280;63709;53.258;-8.814;2023-02-12T09:22:41;103346.34;;;12.59;100.00
64340;BME280;63709;53.258;-8.814;2023-02-12T09:25:07;103340.72;;;12.65;100.00
64340;BME280;63709;53.258;-8.814;2023-02-12T09:27:34;103342.13;;;12.53;100.00
64340;BME280;63709;53.258;-8.814;2023-02-12T09:29:59;103336.13;;;12.69;100.00
64340;BME280;63709;53.258;-8.814;2023-02-12T09:32:24;103338.19;;;12.62;100.00
64340;BME280;63709;53.258;-8.814;2023-02-12T09:34:50;103329.72;;;12.51;100.00
64340;BME280;63709;53.258;-8.814;2023-02-12T09:37:16;103324.13;;;12.57;100.00
64340;BME280;63709;53.258;-8.814;2023-02-12T09:39:43;103317.34;;;12.69;100.00
64340;BME280;63709;53.258;-8.814;2023-02-12T09:47:07;103317.06;;;12.75;100.00
64340;BME280;63709;53.258;-8.814;2023-02-12T09:49:56;103322.09;;;12.82;100.00
64340;BME280;63709;53.258;-8.814;2023-02-12T09:52:26;103321.94;;;12.86;100.00
64340;BME280;63709;53.258;-8.814;2023-02-12T09:54:52;103320.69;;;12.94;100.00
64340;BME280;63709;53.258;-8.814;2023-02-12T09:57:19;103317.94;;;12.96;100.00
64340;BME280;63709;53.258;-8.814;2023-02-12T10:02:44;103302.34;;;13.04;100.00
64340;BME280;63709;53.258;-8.814;2023-02-12T10:05:31;103298.72;;;13.05;100.00
64340;BME280;63709;53.258;-8.814;2023-02-12T10:10:38;103299.78;;;13.21;100.00
64340;BME280;63709;53.258;-8.814;2023-02-12T10:13:07;103310.28;;;13.07;100.00
64340;BME280;63709;53.258;-8.814;2023-02-12T10:15:51;103311.28;;;13.25;100.00
64340;BME280;63709;53.258;-8.814;2023-02-12T10:18:27;103307.97;;;13.18;100.00
64340;BME280;63709;53.258;-8.814;2023-02-12T10:23:31;103312.25;;;13.22;100.00
64340;BME280;63709;53.258;-8.814;2023-02-12T10:26:01;103316.44;;;13.09;100.00
64340;BME280;63709;53.258;-8.814;2023-02-12T10:28:39;103310.50;;;13.21;100.00
64340;BME280;63709;53.258;-8.814;2023-02-12T10:34:17;103305.28;;;13.18;100.00
64340;BME280;63709;53.258;-8.814;2023-02-12T10:36:49;103305.69;;;13.29;100.00
64340;BME280;63709;53.258;-8.814;2023-02-12T10:39:32;103303.97;;;13.28;100.00
64340;BME280;63709;53.258;-8.814;2023-02-12T10:44:28;103307.84;;;13.21;100.00
64340;BME280;63709;53.258;-8.814;2023-02-12T10:46:55;103314.56;;;13.31;100.00
64340;BME280;63709;53.258;-8.814;2023-02-12T10:49:20;103301.19;;;13.30;100.00
64340;BME280;63709;53.258;-8.814;2023-02-12T10:56:59;103309.69;;;13.40;100.00
64340;BME280;63709;53.258;-8.814;2023-02-12T10:59:31;103303.97;;;13.47;100.00
64340;BME280;63709;53.258;-8.814;2023-02-12T11:01:58;103304.00;;;13.46;100.00
64340;BME280;63709;53.258;-8.814;2023-02-12T11:04:27;103301.34;;;13.46;100.00
64340;BME280;63709;53.258;-8.814;2023-02-12T11:07:02;103300.09;;;13.53;100.00
64340;BME280;63709;53.258;-8.814;2023-02-12T11:09:37;103297.28;;;13.56;100.00
64340;BME280;63709;53.258;-8.814;2023-02-12T11:14:42;103291.69;;;13.61;100.00
64340;BME280;63709;53.258;-8.814;2023-02-12T11:17:15;103284.22;;;13.67;100.00
64340;BME280;63709;53.258;-8.814;2023-02-12T11:19:47;103284.34;;;13.64;100.00
64340;BME280;63709;53.258;-8.814;2023-02-12T11:22:26;103291.13;;;13.54;100.00
64340;BME280;63709;53.258;-8.814;2023-02-12T11:24:59;103287.34;;;13.58;100.00
64340;BME280;63709;53.258;-8.814;2023-02-12T11:27:27;103287.94;;;13.65;100.00
64340;BME280;63709;53.258;-8.814;2023-02-12T11:32:37;103282.91;;;13.57;100.00
64340;BME280;63709;53.258;-8.814;2023-02-12T11:37:55;103285.81;;;13.52;100.00
64340;BME280;63709;53.258;-8.814;2023-02-12T11:42:51;103274.50;;;13.65;100.00
64340;BME280;63709;53.258;-8.814;2023-02-12T11:45:18;103275.00;;;13.73;100.00
64340;BME280;63709;53.258;-8.814;2023-02-12T11:47:46;103275.56;;;13.79;100.00
64340;BME280;63709;53.258;-8.814;2023-02-12T11:50:24;103277.03;;;13.68;100.00
64340;BME280;63709;53.258;-8.814;2023-02-12T11:52:52;103277.50;;;13.59;100.00
64340;BME280;63709;53.258;-8.814;2023-02-12T11:55:24;103264.28;;;13.73;100.00
64340;BME280;63709;53.258;-8.814;2023-02-12T12:05:18;103267.91;;;13.89;100.00
64340;BME280;63709;53.258;-8.814;2023-02-12T12:07:46;103265.31;;;13.88;100.00
64340;BME280;63709;53.258;-8.814;2023-02-12T12:10:24;103267.69;;;13.94;100.00
64340;BME280;63709;53.258;-8.814;2023-02-12T12:12:57;103266.81;;;13.93;100.00
64340;BME280;63709;53.258;-8.814;2023-02-12T12:15:31;103269.31;;;13.98;100.00
64340;BME280;63709;53.258;-8.814;2023-02-12T12:18:20;103265.22;;;13.89;100.00
64340;BME280;63709;53.258;-8.814;2023-02-12T12:23:43;103252.22;;;13.99;100.00
64340;BME280;63709;53.258;-8.814;2023-02-12T12:26:15;103246.00;;;13.98;100.00
64340;BME280;63709;53.258;-8.814;2023-02-12T12:41:40;103236.44;;;14.10;100.00
64340;BME280;63709;53.258;-8.814;2023-02-12T12:49:47;103231.69;;;14.15;100.00
64340;BME280;63709;53.258;-8.814;2023-02-12T12:52:20;103236.09;;;14.16;100.00
64340;BME280;63709;53.258;-8.814;2023-02-12T13:10:39;103230.84;;;14.32;100.00
64340;BME280;63709;53.258;-8.814;2023-02-12T13:15:49;103236.56;;;14.42;100.00
64340;BME280;63709;53.258;-8.814;2023-02-12T13:20:54;103223.22;;;14.40;100.00
64340;BME280;63709;53.258;-8.814;2023-02-12T13:26:32;103225.06;;;14.22;100.00
64340;BME280;63709;53.258;-8.814;2023-02-12T13:28:43;103216.34;;;14.35;100.00
64340;BME280;63709;53.258;-8.814;2023-02-12T13:31:16;103214.78;;;14.31;100.00
64340;BME280;63709;53.258;-8.814;2023-02-12T13:33:43;103218.25;;;14.33;100.00
64340;BME280;63709;53.258;-8.814;2023-02-12T13:36:13;103218.19;;;14.17;100.00
64340;BME280;63709;53.258;-8.814;2023-02-12T13:41:34;103212.88;;;14.33;100.00
64340;BME280;63709;53.258;-8.814;2023-02-12T13:52:35;103214.31;;;14.22;100.00
64340;BME280;63709;53.258;-8.814;2023-02-12T13:55:08;103214.56;;;14.18;100.00
64340;BME280;63709;53.258;-8.814;2023-02-12T13:57:25;103205.47;;;14.20;100.00
64340;BME280;63709;53.258;-8.814;2023-02-12T13:59:51;103203.25;;;14.28;100.00
64340;BME280;63709;53.258;-8.814;2023-02-12T14:02:23;103208.78;;;14.25;100.00
64340;BME280;63709;53.258;-8.814;2023-02-12T14:05:02;103208.28;;;14.35;100.00
64340;BME280;63709;53.258;-8.814;2023-02-12T14:10:07;103187.28;;;14.25;100.00
64340;BME280;63709;53.258;-8.814;2023-02-12T14:12:43;103179.38;;;14.22;100.00
64340;BME280;63709;53.258;-8.814;2023-02-12T14:20:31;103195.91;;;14.32;100.00
64340;BME280;63709;53.258;-8.814;2023-02-12T14:23:01;103194.69;;;14.38;100.00
64340;BME280;63709;53.258;-8.814;2023-02-12T14:25:45;103194.94;;;14.33;100.00
64340;BME280;63709;53.258;-8.814;2023-02-12T14:30:42;103194.22;;;14.29;100.00
64340;BME280;63709;53.258;-8.814;2023-02-12T14:33:10;103174.31;;;14.34;100.00
64340;BME280;63709;53.258;-8.814;2023-02-12T14:35:42;103175.88;;;14.38;100.00
64340;BME280;63709;53.258;-8.814;2023-02-12T14:45:49;103162.78;;;14.32;100.00
64340;BME280;63709;53.258;-8.814;2023-02-12T14:50:58;103156.31;;;14.36;100.00
64340;BME280;63709;53.258;-8.814;2023-02-12T14:53:28;103150.63;;;14.24;100.00
64340;BME280;63709;53.258;-8.814;2023-02-12T14:55:55;103141.88;;;14.21;100.00
64340;BME280;63709;53.258;-8.814;2023-02-12T14:58:22;103144.16;;;14.28;100.00
64340;BME280;63709;53.258;-8.814;2023-02-12T15:00:50;103146.53;;;14.17;100.00
64340;BME280;63709;53.258;-8.814;2023-02-12T15:03:19;103146.19;;;14.23;100.00
64340;BME280;63709;53.258;-8.814;2023-02-12T15:08:17;103141.16;;;14.17;100.00
64340;BME280;63709;53.258;-8.814;2023-02-12T15:10:47;103138.94;;;14.25;100.00
64340;BME280;63709;53.258;-8.814;2023-02-12T15:16:12;103126.50;;;14.23;100.00
64340;BME280;63709;53.258;-8.814;2023-02-12T15:21:18;103123.41;;;14.31;100.00
64340;BME280;63709;53.258;-8.814;2023-02-12T15:23:46;103123.91;;;14.39;100.00
64340;BME280;63709;53.258;-8.814;2023-02-12T15:26:17;103113.94;;;14.23;100.00
64340;BME280;63709;53.258;-8.814;2023-02-12T15:28:44;103122.09;;;14.22;100.00
64340;BME280;63709;53.258;-8.814;2023-02-12T15:31:14;103110.41;;;14.23;100.00
64340;BME280;63709;53.258;-8.814;2023-02-12T15:33:43;103107.66;;;14.24;100.00
64340;BME280;63709;53.258;-8.814;2023-02-12T15:36:10;103103.88;;;14.11;100.00
64340;BME280;63709;53.258;-8.814;2023-02-12T15:38:40;103106.31;;;14.16;100.00